Main page
METAR-TAF:

METAR-TAF

Airports :

Ingolstadt, Germany

Ingolstadt Manching Airport

latitude: 48-43N, longitude: 011-32E, elevation: 367 m

Current weather observation

The report was made 23 minutes ago, at 09:20 UTC
Wind 9 kt from the West/Southwest
Temperature 4°C
Humidity 87%
Pressure 1026 hPa
Visibility 10 km or more
Few clouds at a height of 2000 ft
Overcast at a height of 6000 ft

METAR: ETSI 230920Z 25009KT 9999 FEW020 OVC060 04/02 Q1026 BLU BLU

Time: 10:43 (09:43 UTC)

Forecast

The report was made 1 hour and 28 minutes ago, at 08:15 UTC
Forecast valid from 23 at 09 UTC to 23 at 18 UTC
Wind 8 kt from the West/Southwest
Visibility 10 km or more
Scattered clouds at a height of 2000 ft
Broken clouds at a height of 6000 ft

TAF: ETSI 230815Z 2309/2318 24008KT 9999 NSW SCT020 BKN060

Weather observations and forecasts of more than 4000 airports (METAR and TAF reports).

The available stations are represented by yellow and red dots on the map.

Hover mouse over dot to see the name of the station.

Then click to see weather observations and forecasts.

To change the map : click on the green buttons with a black cross to zoom in, on the green button with a dash to zoom out, or on the green arrows for adjacent maps.


METAR-TAF: